sensor_id;sensor_type;location;lat;lon;timestamp;P1;durP1;ratioP1;P2;durP2;ratioP2
11319;SDS011;5715;48.234;14.320;2024-02-28T00:01:15;7.90;;;5.83;;
11319;SDS011;5715;48.234;14.320;2024-02-28T00:04:03;8.33;;;5.20;;
11319;SDS011;5715;48.234;14.320;2024-02-28T00:06:51;5.13;;;4.53;;
11319;SDS011;5715;48.234;14.320;2024-02-28T00:09:39;7.17;;;4.60;;
11319;SDS011;5715;48.234;14.320;2024-02-28T00:12:26;5.67;;;5.17;;
11319;SDS011;5715;48.234;14.320;2024-02-28T00:15:14;9.90;;;5.03;;
11319;SDS011;5715;48.234;14.320;2024-02-28T00:18:02;7.03;;;4.70;;
11319;SDS011;5715;48.234;14.320;2024-02-28T00:20:50;7.10;;;5.50;;
11319;SDS011;5715;48.234;14.320;2024-02-28T00:23:38;4.57;;;4.13;;
11319;SDS011;5715;48.234;14.320;2024-02-28T00:26:26;6.23;;;4.77;;
11319;SDS011;5715;48.234;14.320;2024-02-28T00:29:17;5.83;;;4.83;;
11319;SDS011;5715;48.234;14.320;2024-02-28T00:32:05;4.83;;;4.43;;
11319;SDS011;5715;48.234;14.320;2024-02-28T00:34:53;6.70;;;5.63;;
11319;SDS011;5715;48.234;14.320;2024-02-28T00:37:40;7.63;;;4.90;;
11319;SDS011;5715;48.234;14.320;2024-02-28T00:40:28;9.00;;;4.73;;
11319;SDS011;5715;48.234;14.320;2024-02-28T00:43:15;5.23;;;4.73;;
11319;SDS011;5715;48.234;14.320;2024-02-28T00:46:03;10.03;;;6.43;;
11319;SDS011;5715;48.234;14.320;2024-02-28T00:48:51;7.10;;;4.87;;
11319;SDS011;5715;48.234;14.320;2024-02-28T00:51:38;5.40;;;4.83;;
11319;SDS011;5715;48.234;14.320;2024-02-28T00:54:26;6.77;;;4.83;;
11319;SDS011;5715;48.234;14.320;2024-02-28T00:57:14;5.90;;;4.40;;
11319;SDS011;5715;48.234;14.320;2024-02-28T01:00:01;10.33;;;5.60;;
11319;SDS011;5715;48.234;14.320;2024-02-28T01:02:49;7.53;;;5.97;;
11319;SDS011;5715;48.234;14.320;2024-02-28T01:05:37;9.17;;;6.07;;
11319;SDS011;5715;48.234;14.320;2024-02-28T01:08:25;9.70;;;5.97;;
11319;SDS011;5715;48.234;14.320;2024-02-28T01:11:12;8.83;;;6.60;;
11319;SDS011;5715;48.234;14.320;2024-02-28T01:14:00;7.60;;;5.60;;
11319;SDS011;5715;48.234;14.320;2024-02-28T01:16:47;6.57;;;5.87;;
11319;SDS011;5715;48.234;14.320;2024-02-28T01:19:36;7.47;;;5.10;;
11319;SDS011;5715;48.234;14.320;2024-02-28T01:22:23;6.03;;;5.30;;
11319;SDS011;5715;48.234;14.320;2024-02-28T01:25:11;6.20;;;4.83;;
11319;SDS011;5715;48.234;14.320;2024-02-28T01:27:58;7.67;;;5.77;;
11319;SDS011;5715;48.234;14.320;2024-02-28T01:30:46;6.47;;;5.67;;
11319;SDS011;5715;48.234;14.320;2024-02-28T01:33:35;5.13;;;4.57;;
11319;SDS011;5715;48.234;14.320;2024-02-28T01:36:23;6.43;;;5.10;;
11319;SDS011;5715;48.234;14.320;2024-02-28T01:39:11;7.67;;;4.83;;
11319;SDS011;5715;48.234;14.320;2024-02-28T01:41:59;6.40;;;5.30;;
11319;SDS011;5715;48.234;14.320;2024-02-28T01:44:47;8.83;;;6.57;;
11319;SDS011;5715;48.234;14.320;2024-02-28T01:47:35;6.30;;;5.23;;
11319;SDS011;5715;48.234;14.320;2024-02-28T01:50:24;8.17;;;5.57;;
11319;SDS011;5715;48.234;14.320;2024-02-28T01:53:11;9.67;;;5.93;;
11319;SDS011;5715;48.234;14.320;2024-02-28T01:56:01;7.07;;;5.03;;
11319;SDS011;5715;48.234;14.320;2024-02-28T01:58:49;9.33;;;6.43;;
11319;SDS011;5715;48.234;14.320;2024-02-28T02:01:37;6.30;;;4.57;;
11319;SDS011;5715;48.234;14.320;2024-02-28T02:04:25;6.80;;;5.87;;
11319;SDS011;5715;48.234;14.320;2024-02-28T02:07:13;5.73;;;4.43;;
11319;SDS011;5715;48.234;14.320;2024-02-28T02:10:01;10.27;;;6.37;;
11319;SDS011;5715;48.234;14.320;2024-02-28T02:12:49;7.40;;;5.03;;
11319;SDS011;5715;48.234;14.320;2024-02-28T02:15:36;7.70;;;5.20;;
11319;SDS011;5715;48.234;14.320;2024-02-28T02:18:25;6.00;;;5.20;;
11319;SDS011;5715;48.234;14.320;2024-02-28T02:21:15;12.00;;;5.30;;
11319;SDS011;5715;48.234;14.320;2024-02-28T02:24:06;9.93;;;5.97;;
11319;SDS011;5715;48.234;14.320;2024-02-28T02:26:55;6.80;;;5.80;;
11319;SDS011;5715;48.234;14.320;2024-02-28T02:29:45;5.50;;;4.40;;
11319;SDS011;5715;48.234;14.320;2024-02-28T02:32:33;8.33;;;5.70;;
11319;SDS011;5715;48.234;14.320;2024-02-28T02:35:21;14.40;;;5.80;;
11319;SDS011;5715;48.234;14.320;2024-02-28T02:38:08;8.33;;;5.70;;
11319;SDS011;5715;48.234;14.320;2024-02-28T02:40:56;8.97;;;6.90;;
11319;SDS011;5715;48.234;14.320;2024-02-28T02:43:43;11.30;;;5.63;;
11319;SDS011;5715;48.234;14.320;2024-02-28T02:46:31;8.80;;;6.40;;
11319;SDS011;5715;48.234;14.320;2024-02-28T02:49:19;13.17;;;5.73;;
11319;SDS011;5715;48.234;14.320;2024-02-28T02:52:07;9.67;;;6.20;;
11319;SDS011;5715;48.234;14.320;2024-02-28T02:54:54;7.33;;;6.03;;
11319;SDS011;5715;48.234;14.320;2024-02-28T02:57:42;10.90;;;6.03;;
11319;SDS011;5715;48.234;14.320;2024-02-28T03:00:30;7.87;;;5.83;;
11319;SDS011;5715;48.234;14.320;2024-02-28T03:03:18;8.87;;;6.40;;
11319;SDS011;5715;48.234;14.320;2024-02-28T03:06:06;24.67;;;6.93;;
11319;SDS011;5715;48.234;14.320;2024-02-28T03:08:54;8.00;;;7.20;;
11319;SDS011;5715;48.234;14.320;2024-02-28T03:11:41;6.37;;;5.57;;
11319;SDS011;5715;48.234;14.320;2024-02-28T03:14:29;7.73;;;5.47;;
11319;SDS011;5715;48.234;14.320;2024-02-28T03:17:17;10.40;;;6.73;;
11319;SDS011;5715;48.234;14.320;2024-02-28T03:20:04;8.43;;;6.40;;
11319;SDS011;5715;48.234;14.320;2024-02-28T03:22:54;10.87;;;7.77;;
11319;SDS011;5715;48.234;14.320;2024-02-28T03:25:41;7.00;;;5.23;;
11319;SDS011;5715;48.234;14.320;2024-02-28T03:28:29;11.90;;;6.13;;
11319;SDS011;5715;48.234;14.320;2024-02-28T03:31:17;12.00;;;6.23;;
11319;SDS011;5715;48.234;14.320;2024-02-28T03:34:05;6.47;;;5.73;;
11319;SDS011;5715;48.234;14.320;2024-02-28T03:36:52;10.30;;;6.63;;
11319;SDS011;5715;48.234;14.320;2024-02-28T03:39:40;10.73;;;7.20;;
11319;SDS011;5715;48.234;14.320;2024-02-28T03:42:28;7.60;;;6.07;;
11319;SDS011;5715;48.234;14.320;2024-02-28T03:45:15;9.00;;;6.87;;
11319;SDS011;5715;48.234;14.320;2024-02-28T03:48:03;12.27;;;6.33;;
11319;SDS011;5715;48.234;14.320;2024-02-28T03:50:51;7.13;;;6.13;;
11319;SDS011;5715;48.234;14.320;2024-02-28T03:53:40;8.27;;;6.73;;
11319;SDS011;5715;48.234;14.320;2024-02-28T03:56:28;9.70;;;6.43;;
11319;SDS011;5715;48.234;14.320;2024-02-28T03:59:15;9.37;;;5.93;;
11319;SDS011;5715;48.234;14.320;2024-02-28T04:02:03;10.83;;;6.00;;
11319;SDS011;5715;48.234;14.320;2024-02-28T04:04:50;7.13;;;6.03;;
11319;SDS011;5715;48.234;14.320;2024-02-28T04:07:38;9.13;;;6.00;;
11319;SDS011;5715;48.234;14.320;2024-02-28T04:10:26;13.87;;;8.10;;
11319;SDS011;5715;48.234;14.320;2024-02-28T04:13:14;8.93;;;7.00;;
11319;SDS011;5715;48.234;14.320;2024-02-28T04:16:02;7.30;;;6.43;;
11319;SDS011;5715;48.234;14.320;2024-02-28T04:18:50;7.97;;;6.43;;
11319;SDS011;5715;48.234;14.320;2024-02-28T04:21:38;11.93;;;7.13;;
11319;SDS011;5715;48.234;14.320;2024-02-28T04:24:26;12.50;;;7.03;;
11319;SDS011;5715;48.234;14.320;2024-02-28T04:27:13;11.43;;;7.67;;
11319;SDS011;5715;48.234;14.320;2024-02-28T04:30:02;7.70;;;5.17;;
11319;SDS011;5715;48.234;14.320;2024-02-28T04:32:51;10.37;;;5.43;;
11319;SDS011;5715;48.234;14.320;2024-02-28T04:35:39;8.90;;;7.33;;
11319;SDS011;5715;48.234;14.320;2024-02-28T04:38:26;10.70;;;7.43;;
11319;SDS011;5715;48.234;14.320;2024-02-28T04:41:14;9.10;;;6.57;;
11319;SDS011;5715;48.234;14.320;2024-02-28T04:44:03;9.97;;;6.93;;
11319;SDS011;5715;48.234;14.320;2024-02-28T04:46:51;12.07;;;6.87;;
11319;SDS011;5715;48.234;14.320;2024-02-28T04:49:39;9.37;;;6.23;;
11319;SDS011;5715;48.234;14.320;2024-02-28T04:52:26;8.07;;;5.17;;
11319;SDS011;5715;48.234;14.320;2024-02-28T04:55:14;8.37;;;7.20;;
11319;SDS011;5715;48.234;14.320;2024-02-28T04:58:01;7.13;;;5.67;;
11319;SDS011;5715;48.234;14.320;2024-02-28T05:00:49;21.87;;;7.90;;
11319;SDS011;5715;48.234;14.320;2024-02-28T05:03:37;10.40;;;7.07;;
11319;SDS011;5715;48.234;14.320;2024-02-28T05:06:25;9.73;;;6.97;;
11319;SDS011;5715;48.234;14.320;2024-02-28T05:09:12;11.17;;;6.10;;
11319;SDS011;5715;48.234;14.320;2024-02-28T05:12:01;10.13;;;7.57;;
11319;SDS011;5715;48.234;14.320;2024-02-28T05:14:49;8.97;;;5.53;;
11319;SDS011;5715;48.234;14.320;2024-02-28T05:17:40;10.17;;;6.70;;
11319;SDS011;5715;48.234;14.320;2024-02-28T05:20:27;8.63;;;5.63;;
11319;SDS011;5715;48.234;14.320;2024-02-28T05:23:15;9.73;;;6.70;;
11319;SDS011;5715;48.234;14.320;2024-02-28T05:26:03;7.93;;;6.33;;
11319;SDS011;5715;48.234;14.320;2024-02-28T05:28:52;11.73;;;7.33;;
11319;SDS011;5715;48.234;14.320;2024-02-28T05:31:40;11.77;;;8.67;;
11319;SDS011;5715;48.234;14.320;2024-02-28T05:34:28;9.67;;;6.70;;
11319;SDS011;5715;48.234;14.320;2024-02-28T05:37:16;10.30;;;7.10;;
11319;SDS011;5715;48.234;14.320;2024-02-28T05:40:06;8.17;;;7.07;;
11319;SDS011;5715;48.234;14.320;2024-02-28T05:42:55;10.30;;;6.47;;
11319;SDS011;5715;48.234;14.320;2024-02-28T05:45:43;13.07;;;7.20;;
11319;SDS011;5715;48.234;14.320;2024-02-28T05:48:31;7.77;;;5.57;;
11319;SDS011;5715;48.234;14.320;2024-02-28T05:51:19;6.87;;;5.40;;
11319;SDS011;5715;48.234;14.320;2024-02-28T05:54:07;11.13;;;6.83;;
11319;SDS011;5715;48.234;14.320;2024-02-28T05:56:54;9.83;;;6.27;;
11319;SDS011;5715;48.234;14.320;2024-02-28T05:59:42;8.27;;;6.80;;
11319;SDS011;5715;48.234;14.320;2024-02-28T06:02:29;13.77;;;6.50;;
11319;SDS011;5715;48.234;14.320;2024-02-28T06:05:19;8.20;;;6.63;;
11319;SDS011;5715;48.234;14.320;2024-02-28T06:08:07;8.53;;;6.37;;
11319;SDS011;5715;48.234;14.320;2024-02-28T06:10:54;10.30;;;6.53;;
11319;SDS011;5715;48.234;14.320;2024-02-28T06:13:42;9.00;;;7.20;;
11319;SDS011;5715;48.234;14.320;2024-02-28T06:16:30;9.77;;;7.80;;
11319;SDS011;5715;48.234;14.320;2024-02-28T06:19:18;12.37;;;7.73;;
11319;SDS011;5715;48.234;14.320;2024-02-28T06:22:05;11.33;;;7.30;;
11319;SDS011;5715;48.234;14.320;2024-02-28T06:24:54;7.73;;;6.20;;
11319;SDS011;5715;48.234;14.320;2024-02-28T06:27:42;9.37;;;7.07;;
11319;SDS011;5715;48.234;14.320;2024-02-28T06:30:30;8.23;;;6.37;;
11319;SDS011;5715;48.234;14.320;2024-02-28T06:33:17;8.60;;;5.80;;
11319;SDS011;5715;48.234;14.320;2024-02-28T06:36:06;10.27;;;7.67;;
11319;SDS011;5715;48.234;14.320;2024-02-28T06:38:53;12.60;;;6.23;;
11319;SDS011;5715;48.234;14.320;2024-02-28T06:41:41;13.30;;;7.60;;
11319;SDS011;5715;48.234;14.320;2024-02-28T06:44:29;5.03;;;4.50;;
11319;SDS011;5715;48.234;14.320;2024-02-28T06:47:16;7.70;;;6.57;;
11319;SDS011;5715;48.234;14.320;2024-02-28T06:50:05;11.50;;;6.30;;
11319;SDS011;5715;48.234;14.320;2024-02-28T06:52:53;11.30;;;7.63;;
11319;SDS011;5715;48.234;14.320;2024-02-28T06:55:41;10.77;;;7.77;;
11319;SDS011;5715;48.234;14.320;2024-02-28T06:58:29;8.37;;;6.30;;
11319;SDS011;5715;48.234;14.320;2024-02-28T07:01:17;6.90;;;6.17;;
11319;SDS011;5715;48.234;14.320;2024-02-28T07:04:05;13.63;;;6.90;;
11319;SDS011;5715;48.234;14.320;2024-02-28T07:06:53;7.87;;;6.63;;
11319;SDS011;5715;48.234;14.320;2024-02-28T07:09:40;14.33;;;8.23;;
11319;SDS011;5715;48.234;14.320;2024-02-28T07:12:28;14.20;;;8.17;;
11319;SDS011;5715;48.234;14.320;2024-02-28T07:15:16;8.20;;;6.53;;
11319;SDS011;5715;48.234;14.320;2024-02-28T07:18:07;10.03;;;6.83;;
11319;SDS011;5715;48.234;14.320;2024-02-28T07:20:55;11.10;;;6.53;;
11319;SDS011;5715;48.234;14.320;2024-02-28T07:23:42;10.97;;;7.57;;
11319;SDS011;5715;48.234;14.320;2024-02-28T07:26:30;12.70;;;7.53;;
11319;SDS011;5715;48.234;14.320;2024-02-28T07:29:19;8.83;;;6.23;;
11319;SDS011;5715;48.234;14.320;2024-02-28T07:32:06;9.10;;;6.20;;
11319;SDS011;5715;48.234;14.320;2024-02-28T07:34:54;11.37;;;7.87;;
11319;SDS011;5715;48.234;14.320;2024-02-28T07:37:42;9.27;;;6.13;;
11319;SDS011;5715;48.234;14.320;2024-02-28T07:40:29;10.67;;;8.53;;
11319;SDS011;5715;48.234;14.320;2024-02-28T07:43:17;10.00;;;6.20;;
11319;SDS011;5715;48.234;14.320;2024-02-28T07:46:08;10.37;;;7.20;;
11319;SDS011;5715;48.234;14.320;2024-02-28T07:48:57;10.17;;;6.33;;
11319;SDS011;5715;48.234;14.320;2024-02-28T07:51:45;13.33;;;8.13;;
11319;SDS011;5715;48.234;14.320;2024-02-28T07:54:33;13.23;;;7.63;;
11319;SDS011;5715;48.234;14.320;2024-02-28T07:57:21;9.00;;;6.37;;
11319;SDS011;5715;48.234;14.320;2024-02-28T08:00:10;13.40;;;7.90;;
11319;SDS011;5715;48.234;14.320;2024-02-28T08:03:03;9.73;;;6.43;;
11319;SDS011;5715;48.234;14.320;2024-02-28T08:05:51;12.50;;;8.57;;
11319;SDS011;5715;48.234;14.320;2024-02-28T08:08:39;10.63;;;6.53;;
11319;SDS011;5715;48.234;14.320;2024-02-28T08:11:26;11.57;;;7.30;;
11319;SDS011;5715;48.234;14.320;2024-02-28T08:14:14;13.07;;;7.10;;
11319;SDS011;5715;48.234;14.320;2024-02-28T08:17:02;14.60;;;7.27;;
11319;SDS011;5715;48.234;14.320;2024-02-28T08:19:50;8.47;;;6.37;;
11319;SDS011;5715;48.234;14.320;2024-02-28T08:22:37;14.63;;;8.37;;
11319;SDS011;5715;48.234;14.320;2024-02-28T08:25:25;11.13;;;6.97;;
11319;SDS011;5715;48.234;14.320;2024-02-28T08:28:12;13.93;;;7.07;;
11319;SDS011;5715;48.234;14.320;2024-02-28T08:31:00;12.23;;;8.20;;
11319;SDS011;5715;48.234;14.320;2024-02-28T08:33:48;10.40;;;8.00;;
11319;SDS011;5715;48.234;14.320;2024-02-28T08:36:36;8.10;;;6.37;;
11319;SDS011;5715;48.234;14.320;2024-02-28T08:39:24;12.97;;;6.93;;
11319;SDS011;5715;48.234;14.320;2024-02-28T08:42:11;15.47;;;9.10;;
11319;SDS011;5715;48.234;14.320;2024-02-28T08:44:59;14.53;;;7.43;;
11319;SDS011;5715;48.234;14.320;2024-02-28T08:47:47;16.43;;;9.30;;
11319;SDS011;5715;48.234;14.320;2024-02-28T08:50:35;8.30;;;7.13;;
11319;SDS011;5715;48.234;14.320;2024-02-28T08:53:23;12.73;;;7.47;;
11319;SDS011;5715;48.234;14.320;2024-02-28T08:56:10;11.20;;;7.67;;
11319;SDS011;5715;48.234;14.320;2024-02-28T08:58:58;11.40;;;8.60;;
11319;SDS011;5715;48.234;14.320;2024-02-28T09:01:46;8.67;;;6.80;;
11319;SDS011;5715;48.234;14.320;2024-02-28T09:04:35;10.17;;;6.90;;
11319;SDS011;5715;48.234;14.320;2024-02-28T09:07:22;10.53;;;7.23;;
11319;SDS011;5715;48.234;14.320;2024-02-28T09:10:10;12.47;;;8.53;;
11319;SDS011;5715;48.234;14.320;2024-02-28T09:12:58;16.27;;;8.37;;
11319;SDS011;5715;48.234;14.320;2024-02-28T09:15:46;10.13;;;6.77;;
11319;SDS011;5715;48.234;14.320;2024-02-28T09:18:33;11.93;;;7.20;;
11319;SDS011;5715;48.234;14.320;2024-02-28T09:21:21;10.00;;;7.17;;
11319;SDS011;5715;48.234;14.320;2024-02-28T09:24:09;8.43;;;7.00;;
11319;SDS011;5715;48.234;14.320;2024-02-28T09:26:57;10.13;;;6.80;;
11319;SDS011;5715;48.234;14.320;2024-02-28T09:29:44;12.93;;;8.27;;
11319;SDS011;5715;48.234;14.320;2024-02-28T09:32:32;10.83;;;8.07;;
11319;SDS011;5715;48.234;14.320;2024-02-28T09:35:20;11.07;;;7.67;;
11319;SDS011;5715;48.234;14.320;2024-02-28T09:38:07;11.57;;;7.60;;
11319;SDS011;5715;48.234;14.320;2024-02-28T09:40:55;11.80;;;7.77;;
11319;SDS011;5715;48.234;14.320;2024-02-28T09:43:43;16.77;;;7.87;;
11319;SDS011;5715;48.234;14.320;2024-02-28T09:46:34;8.67;;;6.70;;
11319;SDS011;5715;48.234;14.320;2024-02-28T09:49:22;12.17;;;7.47;;
11319;SDS011;5715;48.234;14.320;2024-02-28T09:52:13;17.33;;;7.73;;
11319;SDS011;5715;48.234;14.320;2024-02-28T09:55:05;8.37;;;6.00;;
11319;SDS011;5715;48.234;14.320;2024-02-28T09:57:53;15.87;;;7.30;;
11319;SDS011;5715;48.234;14.320;2024-02-28T10:00:42;12.50;;;7.37;;
11319;SDS011;5715;48.234;14.320;2024-02-28T10:03:32;13.93;;;6.27;;
11319;SDS011;5715;48.234;14.320;2024-02-28T10:06:20;15.97;;;7.67;;
11319;SDS011;5715;48.234;14.320;2024-02-28T10:09:08;14.47;;;8.07;;
11319;SDS011;5715;48.234;14.320;2024-02-28T10:11:57;14.53;;;8.03;;
11319;SDS011;5715;48.234;14.320;2024-02-28T10:14:50;10.30;;;6.73;;
11319;SDS011;5715;48.234;14.320;2024-02-28T10:17:40;12.00;;;7.50;;
11319;SDS011;5715;48.234;14.320;2024-02-28T10:20:30;10.70;;;7.30;;
11319;SDS011;5715;48.234;14.320;2024-02-28T10:23:18;10.00;;;7.00;;
11319;SDS011;5715;48.234;14.320;2024-02-28T10:26:08;14.10;;;8.00;;
11319;SDS011;5715;48.234;14.320;2024-02-28T10:28:57;15.43;;;6.63;;
11319;SDS011;5715;48.234;14.320;2024-02-28T10:31:44;9.33;;;6.33;;
11319;SDS011;5715;48.234;14.320;2024-02-28T10:34:32;9.77;;;6.97;;
11319;SDS011;5715;48.234;14.320;2024-02-28T10:37:21;17.37;;;9.00;;
11319;SDS011;5715;48.234;14.320;2024-02-28T10:40:09;13.43;;;7.30;;
11319;SDS011;5715;48.234;14.320;2024-02-28T10:43:02;15.97;;;9.13;;
11319;SDS011;5715;48.234;14.320;2024-02-28T10:45:51;10.47;;;7.37;;
11319;SDS011;5715;48.234;14.320;2024-02-28T10:49:03;11.33;;;7.40;;
11319;SDS011;5715;48.234;14.320;2024-02-28T10:51:52;12.43;;;7.27;;
11319;SDS011;5715;48.234;14.320;2024-02-28T10:54:43;14.00;;;7.67;;
11319;SDS011;5715;48.234;14.320;2024-02-28T10:57:41;16.00;;;9.10;;
11319;SDS011;5715;48.234;14.320;2024-02-28T11:00:34;13.83;;;8.27;;
11319;SDS011;5715;48.234;14.320;2024-02-28T11:03:34;13.23;;;6.97;;
11319;SDS011;5715;48.234;14.320;2024-02-28T11:06:22;17.10;;;9.07;;
11319;SDS011;5715;48.234;14.320;2024-02-28T11:09:10;15.80;;;8.90;;
11319;SDS011;5715;48.234;14.320;2024-02-28T11:12:04;17.70;;;9.77;;
11319;SDS011;5715;48.234;14.320;2024-02-28T11:14:59;16.50;;;8.70;;
11319;SDS011;5715;48.234;14.320;2024-02-28T11:17:49;15.07;;;8.63;;
11319;SDS011;5715;48.234;14.320;2024-02-28T11:20:37;17.40;;;9.97;;
11319;SDS011;5715;48.234;14.320;2024-02-28T11:23:24;13.87;;;9.17;;
11319;SDS011;5715;48.234;14.320;2024-02-28T11:26:13;16.10;;;8.57;;
11319;SDS011;5715;48.234;14.320;2024-02-28T11:29:01;17.00;;;9.50;;
11319;SDS011;5715;48.234;14.320;2024-02-28T11:31:48;16.13;;;9.67;;
11319;SDS011;5715;48.234;14.320;2024-02-28T11:34:36;16.10;;;8.73;;
11319;SDS011;5715;48.234;14.320;2024-02-28T11:37:26;13.33;;;8.30;;
11319;SDS011;5715;48.234;14.320;2024-02-28T11:40:15;13.03;;;9.10;;
11319;SDS011;5715;48.234;14.320;2024-02-28T11:43:03;16.63;;;10.43;;
11319;SDS011;5715;48.234;14.320;2024-02-28T11:45:51;18.50;;;9.67;;
11319;SDS011;5715;48.234;14.320;2024-02-28T11:48:42;19.47;;;9.60;;
11319;SDS011;5715;48.234;14.320;2024-02-28T11:51:29;14.23;;;9.30;;
11319;SDS011;5715;48.234;14.320;2024-02-28T11:54:17;17.17;;;10.43;;
11319;SDS011;5715;48.234;14.320;2024-02-28T11:57:05;24.70;;;11.80;;
11319;SDS011;5715;48.234;14.320;2024-02-28T11:59:55;21.13;;;11.07;;
11319;SDS011;5715;48.234;14.320;2024-02-28T12:02:42;22.10;;;11.23;;
11319;SDS011;5715;48.234;14.320;2024-02-28T12:05:30;23.93;;;11.87;;
11319;SDS011;5715;48.234;14.320;2024-02-28T12:08:18;19.70;;;9.77;;
11319;SDS011;5715;48.234;14.320;2024-02-28T12:11:07;17.73;;;9.53;;
11319;SDS011;5715;48.234;14.320;2024-02-28T12:13:57;20.27;;;9.93;;
11319;SDS011;5715;48.234;14.320;2024-02-28T12:16:46;15.60;;;8.97;;
11319;SDS011;5715;48.234;14.320;2024-02-28T12:19:35;17.47;;;10.03;;
11319;SDS011;5715;48.234;14.320;2024-02-28T12:22:23;18.87;;;9.00;;
11319;SDS011;5715;48.234;14.320;2024-02-28T12:25:11;16.37;;;9.90;;
11319;SDS011;5715;48.234;14.320;2024-02-28T12:28:00;20.07;;;10.00;;
11319;SDS011;5715;48.234;14.320;2024-02-28T12:30:49;26.13;;;10.77;;
11319;SDS011;5715;48.234;14.320;2024-02-28T12:33:40;18.10;;;9.43;;
11319;SDS011;5715;48.234;14.320;2024-02-28T12:36:29;16.00;;;10.00;;
11319;SDS011;5715;48.234;14.320;2024-02-28T12:39:17;16.70;;;9.37;;
11319;SDS011;5715;48.234;14.320;2024-02-28T12:42:06;15.23;;;8.90;;
11319;SDS011;5715;48.234;14.320;2024-02-28T12:44:55;18.63;;;8.93;;
11319;SDS011;5715;48.234;14.320;2024-02-28T12:47:42;26.83;;;11.30;;
11319;SDS011;5715;48.234;14.320;2024-02-28T12:50:32;18.03;;;9.07;;
11319;SDS011;5715;48.234;14.320;2024-02-28T12:53:20;16.07;;;8.90;;
11319;SDS011;5715;48.234;14.320;2024-02-28T12:56:08;16.03;;;10.07;;
11319;SDS011;5715;48.234;14.320;2024-02-28T12:58:55;23.10;;;10.10;;
11319;SDS011;5715;48.234;14.320;2024-02-28T13:01:43;17.13;;;9.27;;
11319;SDS011;5715;48.234;14.320;2024-02-28T13:04:31;18.20;;;9.67;;
11319;SDS011;5715;48.234;14.320;2024-02-28T13:07:19;20.13;;;9.80;;
11319;SDS011;5715;48.234;14.320;2024-02-28T13:10:09;18.90;;;10.20;;
11319;SDS011;5715;48.234;14.320;2024-02-28T13:12:57;22.73;;;9.80;;
11319;SDS011;5715;48.234;14.320;2024-02-28T13:15:45;16.60;;;9.20;;
11319;SDS011;5715;48.234;14.320;2024-02-28T13:18:33;15.47;;;8.43;;
11319;SDS011;5715;48.234;14.320;2024-02-28T13:21:20;16.60;;;8.80;;
11319;SDS011;5715;48.234;14.320;2024-02-28T13:24:08;16.10;;;9.13;;
11319;SDS011;5715;48.234;14.320;2024-02-28T13:26:56;14.27;;;8.63;;
11319;SDS011;5715;48.234;14.320;2024-02-28T13:29:44;17.93;;;10.17;;
11319;SDS011;5715;48.234;14.320;2024-02-28T13:32:31;16.73;;;8.27;;
11319;SDS011;5715;48.234;14.320;2024-02-28T13:35:19;17.93;;;9.70;;
11319;SDS011;5715;48.234;14.320;2024-02-28T13:38:07;18.40;;;10.73;;
11319;SDS011;5715;48.234;14.320;2024-02-28T13:40:55;16.37;;;7.70;;
11319;SDS011;5715;48.234;14.320;2024-02-28T13:43:42;16.57;;;8.97;;
11319;SDS011;5715;48.234;14.320;2024-02-28T13:46:30;15.27;;;8.63;;
11319;SDS011;5715;48.234;14.320;2024-02-28T13:49:19;22.20;;;9.40;;
11319;SDS011;5715;48.234;14.320;2024-02-28T13:52:07;22.97;;;8.43;;
11319;SDS011;5715;48.234;14.320;2024-02-28T13:54:55;21.00;;;9.20;;
11319;SDS011;5715;48.234;14.320;2024-02-28T13:57:42;16.90;;;9.23;;
11319;SDS011;5715;48.234;14.320;2024-02-28T14:00:30;17.20;;;8.13;;
11319;SDS011;5715;48.234;14.320;2024-02-28T14:03:18;15.33;;;7.83;;
11319;SDS011;5715;48.234;14.320;2024-02-28T14:06:07;13.47;;;7.80;;
11319;SDS011;5715;48.234;14.320;2024-02-28T14:08:55;16.87;;;8.30;;
11319;SDS011;5715;48.234;14.320;2024-02-28T14:11:42;14.97;;;8.23;;
11319;SDS011;5715;48.234;14.320;2024-02-28T14:14:31;15.43;;;6.67;;
11319;SDS011;5715;48.234;14.320;2024-02-28T14:17:19;13.30;;;8.73;;
11319;SDS011;5715;48.234;14.320;2024-02-28T14:20:07;17.37;;;7.87;;
11319;SDS011;5715;48.234;14.320;2024-02-28T14:22:55;12.93;;;8.30;;
11319;SDS011;5715;48.234;14.320;2024-02-28T14:25:44;11.53;;;7.73;;
11319;SDS011;5715;48.234;14.320;2024-02-28T14:28:33;12.30;;;8.50;;
11319;SDS011;5715;48.234;14.320;2024-02-28T14:31:21;17.60;;;8.70;;
11319;SDS011;5715;48.234;14.320;2024-02-28T14:34:10;13.10;;;7.60;;
11319;SDS011;5715;48.234;14.320;2024-02-28T14:36:57;12.37;;;7.93;;
11319;SDS011;5715;48.234;14.320;2024-02-28T14:39:45;15.17;;;7.70;;
11319;SDS011;5715;48.234;14.320;2024-02-28T14:42:33;17.67;;;8.83;;
11319;SDS011;5715;48.234;14.320;2024-02-28T14:45:22;19.10;;;9.90;;
11319;SDS011;5715;48.234;14.320;2024-02-28T14:48:11;15.43;;;8.40;;
11319;SDS011;5715;48.234;14.320;2024-02-28T14:50:59;16.77;;;9.27;;
11319;SDS011;5715;48.234;14.320;2024-02-28T14:53:49;17.07;;;8.30;;
11319;SDS011;5715;48.234;14.320;2024-02-28T14:56:37;14.50;;;7.83;;
11319;SDS011;5715;48.234;14.320;2024-02-28T14:59:24;13.50;;;8.10;;
11319;SDS011;5715;48.234;14.320;2024-02-28T15:02:12;14.30;;;8.80;;
11319;SDS011;5715;48.234;14.320;2024-02-28T15:05:00;15.67;;;9.17;;
11319;SDS011;5715;48.234;14.320;2024-02-28T15:07:52;15.80;;;7.63;;
11319;SDS011;5715;48.234;14.320;2024-02-28T15:10:41;13.67;;;8.97;;
11319;SDS011;5715;48.234;14.320;2024-02-28T15:13:30;14.07;;;8.10;;
11319;SDS011;5715;48.234;14.320;2024-02-28T15:16:17;17.00;;;8.70;;
11319;SDS011;5715;48.234;14.320;2024-02-28T15:19:05;16.17;;;8.10;;
11319;SDS011;5715;48.234;14.320;2024-02-28T15:21:54;17.00;;;8.67;;
11319;SDS011;5715;48.234;14.320;2024-02-28T15:24:41;14.43;;;7.60;;
11319;SDS011;5715;48.234;14.320;2024-02-28T15:27:29;18.23;;;7.60;;
11319;SDS011;5715;48.234;14.320;2024-02-28T15:30:17;13.13;;;7.90;;
11319;SDS011;5715;48.234;14.320;2024-02-28T15:33:04;17.10;;;9.00;;
11319;SDS011;5715;48.234;14.320;2024-02-28T15:35:53;16.87;;;8.53;;
11319;SDS011;5715;48.234;14.320;2024-02-28T15:38:41;15.63;;;8.53;;
11319;SDS011;5715;48.234;14.320;2024-02-28T15:41:32;17.30;;;7.87;;
11319;SDS011;5715;48.234;14.320;2024-02-28T15:44:19;17.97;;;7.70;;
11319;SDS011;5715;48.234;14.320;2024-02-28T15:47:07;16.53;;;8.80;;
11319;SDS011;5715;48.234;14.320;2024-02-28T15:49:58;12.20;;;8.70;;
11319;SDS011;5715;48.234;14.320;2024-02-28T15:52:46;13.53;;;7.87;;
11319;SDS011;5715;48.234;14.320;2024-02-28T15:55:34;15.70;;;8.20;;
11319;SDS011;5715;48.234;14.320;2024-02-28T15:58:21;18.60;;;7.83;;
11319;SDS011;5715;48.234;14.320;2024-02-28T16:01:10;12.63;;;7.23;;
11319;SDS011;5715;48.234;14.320;2024-02-28T16:03:59;13.97;;;6.60;;
11319;SDS011;5715;48.234;14.320;2024-02-28T16:06:46;12.50;;;8.23;;
11319;SDS011;5715;48.234;14.320;2024-02-28T16:09:34;15.67;;;8.60;;
11319;SDS011;5715;48.234;14.320;2024-02-28T16:12:26;12.73;;;7.40;;
11319;SDS011;5715;48.234;14.320;2024-02-28T16:15:14;12.60;;;8.00;;
11319;SDS011;5715;48.234;14.320;2024-02-28T16:18:02;21.40;;;7.50;;
11319;SDS011;5715;48.234;14.320;2024-02-28T16:20:50;15.93;;;8.50;;
11319;SDS011;5715;48.234;14.320;2024-02-28T16:23:38;14.83;;;8.83;;
11319;SDS011;5715;48.234;14.320;2024-02-28T16:26:26;14.23;;;7.63;;
11319;SDS011;5715;48.234;14.320;2024-02-28T16:29:14;17.67;;;8.20;;
11319;SDS011;5715;48.234;14.320;2024-02-28T16:32:02;13.63;;;8.50;;
11319;SDS011;5715;48.234;14.320;2024-02-28T16:34:50;15.83;;;8.33;;
11319;SDS011;5715;48.234;14.320;2024-02-28T16:37:38;12.43;;;7.00;;
11319;SDS011;5715;48.234;14.320;2024-02-28T16:40:25;19.40;;;8.83;;
11319;SDS011;5715;48.234;14.320;2024-02-28T16:43:14;16.13;;;8.47;;